CCA2937 ZBTJ-ZYCC
Flight info
| Callsign | CCA2937 |
|---|---|
| Flight time | 1h 35m |
| Altitude | 29100 |
| Route | MUGLO W34 OTBUL W35 CHG A575 PU W89 IVPUV W603 LEMOT |
| Aircraft | B737/M-SDE3FGHIRWY/LB1 |
Departure
| Time | 2026-04-19 06:32 |
|---|---|
| Airport | Tianjin Binhai International Airport (ZBTJ) |
Arrival
| Time | 2026-04-19 08:07 |
|---|---|
| Airport | Changchun Longjia International Airport (ZYCC) |
| Time | Latitude | Longitude | Altitude | Speed | Heading |
|---|---|---|---|---|---|
| 2026-04-19 06:11 | 39.12550 | 117.35731 | 18 ft | 0 kts | 92° |
| 2026-04-19 06:21 | 39.12550 | 117.35715 | 18 ft | 2 kts | 92° |
| 2026-04-19 06:21 | 39.12550 | 117.35695 | 18 ft | 2 kts | 92° |
| 2026-04-19 06:21 | 39.12551 | 117.35674 | 18 ft | 2 kts | 92° |
| 2026-04-19 06:21 | 39.12552 | 117.35653 | 18 ft | 2 kts | 92° |
| 2026-04-19 06:22 | 39.12552 | 117.35632 | 18 ft | 2 kts | 92° |
| 2026-04-19 06:22 | 39.12553 | 117.35616 | 18 ft | 2 kts | 92° |
| 2026-04-19 06:22 | 39.12553 | 117.35615 | 18 ft | 0 kts | 92° |
| 2026-04-19 06:25 | 39.12552 | 117.35617 | 18 ft | 1 kts | 98° |
| 2026-04-19 06:25 | 39.12536 | 117.35628 | 18 ft | 10 kts | 166° |
| 2026-04-19 06:25 | 39.12454 | 117.35615 | 18 ft | 10 kts | 234° |
| 2026-04-19 06:25 | 39.12396 | 117.35544 | 18 ft | 17 kts | 183° |
| 2026-04-19 06:26 | 39.12327 | 117.35478 | 18 ft | 18 kts | 246° |
| 2026-04-19 06:26 | 39.12273 | 117.35327 | 18 ft | 18 kts | 244° |
| 2026-04-19 06:26 | 39.12220 | 117.35183 | 18 ft | 18 kts | 244° |
| 2026-04-19 06:26 | 39.12175 | 117.35049 | 18 ft | 9 kts | 276° |
| 2026-04-19 06:27 | 39.12270 | 117.34974 | 18 ft | 26 kts | 335° |
| 2026-04-19 06:27 | 39.12444 | 117.34867 | 18 ft | 27 kts | 335° |
| 2026-04-19 06:27 | 39.12621 | 117.34754 | 18 ft | 28 kts | 338° |
| 2026-04-19 06:27 | 39.12796 | 117.34650 | 18 ft | 27 kts | 334° |
| 2026-04-19 06:28 | 39.12966 | 117.34547 | 18 ft | 29 kts | 334° |
| 2026-04-19 06:28 | 39.13133 | 117.34445 | 18 ft | 26 kts | 334° |
| 2026-04-19 06:28 | 39.13284 | 117.34350 | 18 ft | 24 kts | 333° |
| 2026-04-19 06:28 | 39.13440 | 117.34254 | 18 ft | 26 kts | 334° |
| 2026-04-19 06:29 | 39.13608 | 117.34150 | 18 ft | 26 kts | 334° |
| 2026-04-19 06:29 | 39.13769 | 117.34053 | 18 ft | 27 kts | 334° |
| 2026-04-19 06:29 | 39.13938 | 117.33948 | 18 ft | 26 kts | 334° |
| 2026-04-19 06:29 | 39.14073 | 117.33865 | 18 ft | 14 kts | 334° |
| 2026-04-19 06:30 | 39.14113 | 117.33807 | 18 ft | 11 kts | 264° |
| 2026-04-19 06:30 | 39.14085 | 117.33718 | 18 ft | 11 kts | 241° |
| 2026-04-19 06:30 | 39.14052 | 117.33645 | 18 ft | 5 kts | 223° |
| 2026-04-19 06:30 | 39.14011 | 117.33649 | 18 ft | 0 kts | 153° |
| 2026-04-19 06:31 | 39.13820 | 117.33769 | 18 ft | 63 kts | 155° |
| 2026-04-19 06:31 | 39.13235 | 117.34125 | 18 ft | 121 kts | 154° |
| 2026-04-19 06:31 | 39.12366 | 117.34673 | 238 ft | 149 kts | 155° |
| 2026-04-19 06:32 | 39.11528 | 117.35246 | 733 ft | 157 kts | 154° |
| 2026-04-19 06:32 | 39.10598 | 117.36038 | 1389 ft | 161 kts | 150° |
| 2026-04-19 06:32 | 39.09635 | 117.36738 | 1963 ft | 161 kts | 161° |
| 2026-04-19 06:32 | 39.08567 | 117.37300 | 2287 ft | 178 kts | 163° |
| 2026-04-19 06:33 | 39.07348 | 117.37925 | 2510 ft | 201 kts | 162° |
| 2026-04-19 06:33 | 39.06004 | 117.38669 | 2759 ft | 220 kts | 161° |
| 2026-04-19 06:33 | 39.04540 | 117.39528 | 3063 ft | 236 kts | 160° |
| 2026-04-19 06:33 | 39.03010 | 117.40453 | 3389 ft | 257 kts | 159° |
| 2026-04-19 06:34 | 39.01365 | 117.41458 | 4125 ft | 261 kts | 159° |
| 2026-04-19 06:34 | 38.99719 | 117.42467 | 5003 ft | 264 kts | 159° |
| 2026-04-19 06:34 | 38.98079 | 117.43650 | 5787 ft | 273 kts | 146° |
| 2026-04-19 06:34 | 38.96862 | 117.45541 | 6593 ft | 287 kts | 122° |
| 2026-04-19 06:35 | 38.96291 | 117.48077 | 7419 ft | 300 kts | 98° |
| 2026-04-19 06:35 | 38.96519 | 117.50773 | 8242 ft | 310 kts | 76° |
| 2026-04-19 06:35 | 38.97275 | 117.53352 | 9075 ft | 315 kts | 71° |
| 2026-04-19 06:35 | 38.97967 | 117.56038 | 9901 ft | 319 kts | 77° |
| 2026-04-19 06:36 | 38.98428 | 117.58843 | 10660 ft | 325 kts | 83° |
| 2026-04-19 06:36 | 38.98749 | 117.61785 | 11136 ft | 343 kts | 85° |
| 2026-04-19 06:36 | 38.99102 | 117.64918 | 11445 ft | 366 kts | 84° |
| 2026-04-19 06:36 | 38.99495 | 117.68243 | 11787 ft | 386 kts | 83° |
| 2026-04-19 06:37 | 38.99972 | 117.71691 | 12374 ft | 397 kts | 79° |
| 2026-04-19 06:37 | 39.00664 | 117.75161 | 13057 ft | 405 kts | 75° |
| 2026-04-19 06:37 | 39.01483 | 117.78662 | 13754 ft | 413 kts | 73° |
| 2026-04-19 06:37 | 39.02335 | 117.82213 | 14501 ft | 419 kts | 73° |
| 2026-04-19 06:38 | 39.03177 | 117.85820 | 15332 ft | 423 kts | 74° |
| 2026-04-19 06:38 | 39.03983 | 117.89478 | 16138 ft | 428 kts | 75° |
| 2026-04-19 06:38 | 39.04775 | 117.93184 | 16945 ft | 432 kts | 74° |
| 2026-04-19 06:38 | 39.05598 | 117.96917 | 17699 ft | 436 kts | 73° |
| 2026-04-19 06:39 | 39.06290 | 118.00740 | 18428 ft | 441 kts | 81° |
| 2026-04-19 06:39 | 39.06543 | 118.04688 | 19146 ft | 445 kts | 90° |
| 2026-04-19 06:39 | 39.06340 | 118.08683 | 19859 ft | 449 kts | 98° |
| 2026-04-19 06:39 | 39.05778 | 118.12641 | 20545 ft | 452 kts | 103° |
| 2026-04-19 06:40 | 39.05076 | 118.16595 | 21241 ft | 455 kts | 104° |
| 2026-04-19 06:40 | 39.04385 | 118.20588 | 21863 ft | 460 kts | 103° |
| 2026-04-19 06:40 | 39.03716 | 118.24623 | 22476 ft | 463 kts | 102° |
| 2026-04-19 06:40 | 39.03053 | 118.28701 | 23068 ft | 467 kts | 102° |
| 2026-04-19 06:41 | 39.02388 | 118.32804 | 23654 ft | 471 kts | 101° |
| 2026-04-19 06:41 | 39.01822 | 118.36954 | 24228 ft | 473 kts | 94° |
| 2026-04-19 06:41 | 39.01929 | 118.41176 | 24698 ft | 473 kts | 78° |
| 2026-04-19 06:41 | 39.02835 | 118.45228 | 25166 ft | 470 kts | 63° |
| 2026-04-19 06:42 | 39.04460 | 118.48833 | 25637 ft | 464 kts | 48° |
| 2026-04-19 06:42 | 39.06686 | 118.51767 | 26101 ft | 455 kts | 32° |
| 2026-04-19 06:42 | 39.09348 | 118.53838 | 26569 ft | 443 kts | 17° |
| 2026-04-19 06:42 | 39.12260 | 118.54938 | 27032 ft | 431 kts | 2° |
| 2026-04-19 06:43 | 39.15224 | 118.55407 | 27536 ft | 429 kts | 359° |
| 2026-04-19 06:43 | 39.18141 | 118.55902 | 28188 ft | 428 kts | 1° |
| 2026-04-19 06:43 | 39.21082 | 118.56559 | 28689 ft | 432 kts | 3° |
| 2026-04-19 06:43 | 39.24030 | 118.57354 | 28919 ft | 436 kts | 4° |
| 2026-04-19 06:44 | 39.29942 | 118.59088 | 28964 ft | 434 kts | 4° |
| 2026-04-19 06:44 | 39.35802 | 118.60852 | 28973 ft | 430 kts | 5° |
| 2026-04-19 06:45 | 39.41649 | 118.62637 | 28979 ft | 434 kts | 4° |
| 2026-04-19 06:45 | 39.47517 | 118.64424 | 28982 ft | 433 kts | 4° |
| 2026-04-19 06:46 | 39.53399 | 118.66234 | 28983 ft | 434 kts | 4° |
| 2026-04-19 06:46 | 39.59299 | 118.68058 | 28985 ft | 437 kts | 4° |
| 2026-04-19 06:47 | 39.65219 | 118.69891 | 28986 ft | 438 kts | 4° |
| 2026-04-19 06:47 | 39.71150 | 118.71806 | 28986 ft | 443 kts | 8° |
| 2026-04-19 06:48 | 39.76841 | 118.75193 | 28990 ft | 458 kts | 22° |
| 2026-04-19 06:48 | 39.81230 | 118.79147 | 28990 ft | 464 kts | 27° |
| 2026-04-19 06:49 | 39.87323 | 118.84985 | 28992 ft | 467 kts | 27° |
| 2026-04-19 06:49 | 39.91686 | 118.89119 | 28993 ft | 466 kts | 27° |
| 2026-04-19 06:50 | 39.96925 | 118.94056 | 28994 ft | 464 kts | 26° |
| 2026-04-19 06:50 | 40.02180 | 118.98960 | 28995 ft | 465 kts | 27° |
| 2026-04-19 06:51 | 40.07419 | 119.03916 | 28995 ft | 465 kts | 27° |
| 2026-04-19 06:51 | 40.12652 | 119.08887 | 28997 ft | 466 kts | 27° |
| 2026-04-19 06:52 | 40.17894 | 119.13874 | 28997 ft | 466 kts | 27° |
| 2026-04-19 06:52 | 40.23139 | 119.18870 | 28998 ft | 466 kts | 27° |
| 2026-04-19 06:53 | 40.28411 | 119.23782 | 29000 ft | 464 kts | 26° |
| 2026-04-19 06:53 | 40.33675 | 119.28696 | 29000 ft | 464 kts | 26° |
| 2026-04-19 06:54 | 40.38943 | 119.33634 | 29000 ft | 466 kts | 27° |
| 2026-04-19 06:54 | 40.44220 | 119.38594 | 29001 ft | 466 kts | 27° |
| 2026-04-19 06:55 | 40.49480 | 119.43549 | 29002 ft | 465 kts | 27° |
| 2026-04-19 06:55 | 40.54720 | 119.48435 | 29002 ft | 466 kts | 26° |
| 2026-04-19 06:56 | 40.59997 | 119.53385 | 29002 ft | 466 kts | 27° |
| 2026-04-19 06:56 | 40.65267 | 119.58352 | 29003 ft | 466 kts | 27° |
| 2026-04-19 06:57 | 40.70533 | 119.63330 | 29004 ft | 466 kts | 27° |
| 2026-04-19 06:57 | 40.75805 | 119.68327 | 29004 ft | 467 kts | 27° |
| 2026-04-19 06:58 | 40.81072 | 119.73330 | 29005 ft | 466 kts | 27° |
| 2026-04-19 06:58 | 40.86328 | 119.78332 | 29005 ft | 467 kts | 27° |
| 2026-04-19 06:59 | 40.91614 | 119.83373 | 29001 ft | 469 kts | 27° |
| 2026-04-19 06:59 | 40.96893 | 119.88421 | 29001 ft | 467 kts | 27° |
| 2026-04-19 07:00 | 41.02152 | 119.93456 | 29006 ft | 467 kts | 27° |
| 2026-04-19 07:00 | 41.07416 | 119.98503 | 29003 ft | 468 kts | 27° |
| 2026-04-19 07:01 | 41.12688 | 120.03562 | 28993 ft | 468 kts | 29° |
| 2026-04-19 07:01 | 41.17966 | 120.08657 | 28995 ft | 469 kts | 28° |
| 2026-04-19 07:02 | 41.23236 | 120.13745 | 28993 ft | 469 kts | 29° |
| 2026-04-19 07:02 | 41.28546 | 120.18874 | 28991 ft | 472 kts | 29° |
| 2026-04-19 07:03 | 41.33855 | 120.23993 | 28992 ft | 469 kts | 29° |
| 2026-04-19 07:03 | 41.39148 | 120.29144 | 28989 ft | 473 kts | 29° |
| 2026-04-19 07:04 | 41.44423 | 120.34293 | 28987 ft | 473 kts | 30° |
| 2026-04-19 07:04 | 41.49694 | 120.39544 | 28971 ft | 474 kts | 35° |
| 2026-04-19 07:05 | 41.51902 | 120.42850 | 28966 ft | 483 kts | 50° |
| 2026-04-19 07:05 | 41.53475 | 120.46835 | 28969 ft | 490 kts | 65° |
| 2026-04-19 07:05 | 41.54374 | 120.51226 | 28972 ft | 492 kts | 77° |
| 2026-04-19 07:05 | 41.54747 | 120.55767 | 28975 ft | 493 kts | 85° |
| 2026-04-19 07:06 | 41.54913 | 120.64931 | 28969 ft | 493 kts | 87° |
| 2026-04-19 07:06 | 41.55269 | 120.74071 | 28966 ft | 493 kts | 86° |
| 2026-04-19 07:07 | 41.55790 | 120.83191 | 28964 ft | 493 kts | 85° |
| 2026-04-19 07:07 | 41.56257 | 120.92315 | 28963 ft | 493 kts | 85° |
| 2026-04-19 07:08 | 41.56698 | 121.01442 | 28959 ft | 492 kts | 86° |
| 2026-04-19 07:08 | 41.57131 | 121.10564 | 28956 ft | 492 kts | 86° |
| 2026-04-19 07:09 | 41.57565 | 121.19678 | 28945 ft | 491 kts | 86° |
| 2026-04-19 07:09 | 41.58248 | 121.28757 | 28933 ft | 491 kts | 83° |
| 2026-04-19 07:10 | 41.58980 | 121.37764 | 28930 ft | 491 kts | 83° |
| 2026-04-19 07:10 | 41.59682 | 121.46900 | 28929 ft | 491 kts | 84° |
| 2026-04-19 07:11 | 41.60360 | 121.55920 | 28928 ft | 491 kts | 84° |
| 2026-04-19 07:11 | 41.61041 | 121.65015 | 28927 ft | 492 kts | 83° |
| 2026-04-19 07:12 | 41.61805 | 121.74084 | 28926 ft | 492 kts | 83° |
| 2026-04-19 07:12 | 41.62488 | 121.83177 | 28925 ft | 492 kts | 84° |
| 2026-04-19 07:13 | 41.63140 | 121.92277 | 28924 ft | 492 kts | 84° |
| 2026-04-19 07:13 | 41.63784 | 122.01369 | 28923 ft | 492 kts | 84° |
| 2026-04-19 07:14 | 41.64274 | 122.10487 | 28922 ft | 492 kts | 89° |
| 2026-04-19 07:14 | 41.63743 | 122.19597 | 28922 ft | 491 kts | 99° |
| 2026-04-19 07:15 | 41.62608 | 122.28596 | 28921 ft | 491 kts | 101° |
| 2026-04-19 07:16 | 41.60980 | 122.42117 | 28920 ft | 491 kts | 100° |
| 2026-04-19 07:16 | 41.59922 | 122.51075 | 28919 ft | 492 kts | 100° |
| 2026-04-19 07:17 | 41.58879 | 122.60106 | 28918 ft | 492 kts | 99° |
| 2026-04-19 07:17 | 41.57863 | 122.69133 | 28918 ft | 492 kts | 100° |
| 2026-04-19 07:18 | 41.56810 | 122.78156 | 28918 ft | 492 kts | 100° |
| 2026-04-19 07:18 | 41.55746 | 122.87162 | 28918 ft | 492 kts | 99° |
| 2026-04-19 07:19 | 41.54707 | 122.96190 | 28918 ft | 492 kts | 100° |
| 2026-04-19 07:19 | 41.53616 | 123.05196 | 28917 ft | 492 kts | 100° |
| 2026-04-19 07:20 | 41.52510 | 123.14199 | 28917 ft | 492 kts | 100° |
| 2026-04-19 07:20 | 41.51455 | 123.23215 | 28911 ft | 492 kts | 95° |
| 2026-04-19 07:20 | 41.51504 | 123.27764 | 28911 ft | 491 kts | 82° |
| 2026-04-19 07:21 | 41.52252 | 123.32202 | 28917 ft | 492 kts | 70° |
| 2026-04-19 07:21 | 41.55265 | 123.40309 | 28918 ft | 486 kts | 55° |
| 2026-04-19 07:22 | 41.58891 | 123.47933 | 28917 ft | 489 kts | 56° |
| 2026-04-19 07:22 | 41.62339 | 123.55798 | 28916 ft | 490 kts | 58° |
| 2026-04-19 07:23 | 41.65752 | 123.63683 | 28916 ft | 490 kts | 58° |
| 2026-04-19 07:23 | 41.69165 | 123.71572 | 28916 ft | 490 kts | 58° |
| 2026-04-19 07:24 | 41.72284 | 123.79616 | 28916 ft | 491 kts | 64° |
| 2026-04-19 07:24 | 41.74940 | 123.88045 | 28915 ft | 492 kts | 66° |
| 2026-04-19 07:25 | 41.77638 | 123.96464 | 28914 ft | 492 kts | 65° |
| 2026-04-19 07:25 | 41.80355 | 124.04878 | 28913 ft | 492 kts | 65° |
| 2026-04-19 07:26 | 41.83081 | 124.13298 | 28912 ft | 492 kts | 65° |
| 2026-04-19 07:26 | 41.85829 | 124.21701 | 28912 ft | 492 kts | 65° |
| 2026-04-19 07:27 | 41.88536 | 124.30139 | 28909 ft | 493 kts | 65° |
| 2026-04-19 07:27 | 41.91236 | 124.38596 | 28908 ft | 493 kts | 65° |
| 2026-04-19 07:28 | 41.94287 | 124.46804 | 28901 ft | 490 kts | 52° |
| 2026-04-19 07:28 | 41.98951 | 124.53366 | 28902 ft | 483 kts | 35° |
| 2026-04-19 07:28 | 42.01734 | 124.55804 | 28905 ft | 474 kts | 22° |
| 2026-04-19 07:29 | 42.04717 | 124.57640 | 28907 ft | 470 kts | 17° |
| 2026-04-19 07:29 | 42.10723 | 124.61138 | 28901 ft | 472 kts | 18° |
| 2026-04-19 07:30 | 42.16634 | 124.65009 | 28900 ft | 473 kts | 20° |
| 2026-04-19 07:30 | 42.22514 | 124.69027 | 28897 ft | 474 kts | 20° |
| 2026-04-19 07:31 | 42.28310 | 124.73015 | 28887 ft | 457 kts | 19° |
| 2026-04-19 07:31 | 42.33897 | 124.76840 | 28871 ft | 445 kts | 19° |
| 2026-04-19 07:32 | 42.39402 | 124.80618 | 28862 ft | 443 kts | 19° |
| 2026-04-19 07:32 | 42.44858 | 124.84356 | 28854 ft | 442 kts | 19° |
| 2026-04-19 07:33 | 42.50370 | 124.88175 | 28851 ft | 443 kts | 19° |
| 2026-04-19 07:33 | 42.55848 | 124.91987 | 28846 ft | 442 kts | 19° |
| 2026-04-19 07:34 | 42.61325 | 124.95805 | 28840 ft | 443 kts | 19° |
| 2026-04-19 07:34 | 42.66739 | 124.99687 | 28837 ft | 447 kts | 22° |
| 2026-04-19 07:35 | 42.71823 | 125.04705 | 28837 ft | 457 kts | 33° |
| 2026-04-19 07:35 | 42.76450 | 125.10677 | 28824 ft | 458 kts | 36° |
| 2026-04-19 07:36 | 42.81217 | 125.16356 | 28818 ft | 450 kts | 27° |
| 2026-04-19 07:36 | 42.86679 | 125.20175 | 28820 ft | 435 kts | 12° |
| 2026-04-19 07:37 | 42.92355 | 125.22770 | 28812 ft | 427 kts | 8° |
| 2026-04-19 07:37 | 42.97991 | 125.25211 | 28402 ft | 419 kts | 9° |
| 2026-04-19 07:37 | 43.00748 | 125.26419 | 27901 ft | 415 kts | 9° |
| 2026-04-19 07:38 | 43.03483 | 125.27621 | 27326 ft | 413 kts | 9° |
| 2026-04-19 07:38 | 43.06213 | 125.28826 | 26748 ft | 412 kts | 9° |
| 2026-04-19 07:38 | 43.08931 | 125.30027 | 26194 ft | 408 kts | 9° |
| 2026-04-19 07:38 | 43.11615 | 125.31216 | 25650 ft | 404 kts | 9° |
| 2026-04-19 07:39 | 43.13383 | 125.31999 | 25292 ft | 401 kts | 9° |
| 2026-04-19 07:39 | 43.16022 | 125.33163 | 24752 ft | 397 kts | 9° |
| 2026-04-19 07:39 | 43.18671 | 125.34325 | 24170 ft | 403 kts | 9° |
| 2026-04-19 07:39 | 43.21363 | 125.35512 | 23611 ft | 410 kts | 9° |
| 2026-04-19 07:40 | 43.24103 | 125.36724 | 23016 ft | 417 kts | 10° |
| 2026-04-19 07:40 | 43.26878 | 125.37954 | 22417 ft | 421 kts | 10° |
| 2026-04-19 07:40 | 43.29663 | 125.39191 | 21816 ft | 420 kts | 10° |
| 2026-04-19 07:40 | 43.32439 | 125.40425 | 21223 ft | 420 kts | 11° |
| 2026-04-19 07:41 | 43.35211 | 125.41659 | 20631 ft | 419 kts | 11° |
| 2026-04-19 07:41 | 43.37989 | 125.42883 | 20028 ft | 419 kts | 12° |
| 2026-04-19 07:41 | 43.40761 | 125.44114 | 19441 ft | 419 kts | 12° |
| 2026-04-19 07:41 | 43.43541 | 125.45355 | 18838 ft | 419 kts | 13° |
| 2026-04-19 07:42 | 43.46314 | 125.46597 | 18238 ft | 420 kts | 13° |
| 2026-04-19 07:42 | 43.49092 | 125.47847 | 17649 ft | 419 kts | 14° |
| 2026-04-19 07:42 | 43.51867 | 125.49097 | 17049 ft | 419 kts | 14° |
| 2026-04-19 07:42 | 43.54637 | 125.50344 | 16443 ft | 419 kts | 14° |
| 2026-04-19 07:43 | 43.57405 | 125.51591 | 15833 ft | 419 kts | 14° |
| 2026-04-19 07:43 | 43.60169 | 125.52836 | 15236 ft | 418 kts | 15° |
| 2026-04-19 07:43 | 43.62930 | 125.54085 | 14647 ft | 417 kts | 15° |
| 2026-04-19 07:43 | 43.65557 | 125.55649 | 14062 ft | 417 kts | 26° |
| 2026-04-19 07:44 | 43.67977 | 125.57852 | 13431 ft | 417 kts | 38° |
| 2026-04-19 07:44 | 43.70030 | 125.60648 | 12838 ft | 413 kts | 52° |
| 2026-04-19 07:44 | 43.71731 | 125.63821 | 12227 ft | 411 kts | 54° |
| 2026-04-19 07:44 | 43.73514 | 125.66908 | 11609 ft | 410 kts | 51° |
| 2026-04-19 07:45 | 43.75389 | 125.69869 | 11006 ft | 407 kts | 49° |
| 2026-04-19 07:45 | 43.77240 | 125.72812 | 10378 ft | 405 kts | 50° |
| 2026-04-19 07:45 | 43.79089 | 125.75733 | 9820 ft | 400 kts | 47° |
| 2026-04-19 07:45 | 43.81188 | 125.78132 | 9642 ft | 382 kts | 30° |
| 2026-04-19 07:46 | 43.83570 | 125.79509 | 9415 ft | 362 kts | 10° |
| 2026-04-19 07:46 | 43.85996 | 125.79928 | 9171 ft | 344 kts | 357° |
| 2026-04-19 07:46 | 43.88324 | 125.79852 | 9042 ft | 324 kts | 349° |
| 2026-04-19 07:46 | 43.90517 | 125.79647 | 8988 ft | 312 kts | 356° |
| 2026-04-19 07:47 | 43.92637 | 125.80309 | 8702 ft | 316 kts | 19° |
| 2026-04-19 07:47 | 43.94466 | 125.81950 | 8281 ft | 310 kts | 38° |
| 2026-04-19 07:47 | 43.96015 | 125.84002 | 7568 ft | 308 kts | 44° |
| 2026-04-19 07:47 | 43.97465 | 125.86171 | 6853 ft | 305 kts | 48° |
| 2026-04-19 07:48 | 43.98828 | 125.88402 | 6251 ft | 301 kts | 50° |
| 2026-04-19 07:48 | 44.00174 | 125.90621 | 5840 ft | 301 kts | 50° |
| 2026-04-19 07:48 | 44.01542 | 125.92819 | 5437 ft | 300 kts | 46° |
| 2026-04-19 07:48 | 44.03208 | 125.94482 | 5189 ft | 289 kts | 22° |
| 2026-04-19 07:49 | 44.05059 | 125.95274 | 5184 ft | 269 kts | 9° |
| 2026-04-19 07:49 | 44.06830 | 125.95495 | 5056 ft | 251 kts | 348° |
| 2026-04-19 07:49 | 44.08387 | 125.94680 | 4793 ft | 232 kts | 320° |
| 2026-04-19 07:49 | 44.09625 | 125.93271 | 4522 ft | 225 kts | 311° |
| 2026-04-19 07:50 | 44.10765 | 125.91793 | 4183 ft | 221 kts | 307° |
| 2026-04-19 07:50 | 44.11532 | 125.90070 | 3685 ft | 207 kts | 274° |
| 2026-04-19 07:50 | 44.11339 | 125.88169 | 3425 ft | 198 kts | 245° |
| 2026-04-19 07:50 | 44.10675 | 125.86522 | 3136 ft | 192 kts | 234° |
| 2026-04-19 07:51 | 44.09937 | 125.85047 | 2994 ft | 178 kts | 232° |
| 2026-04-19 07:51 | 44.09208 | 125.83746 | 2913 ft | 162 kts | 230° |
| 2026-04-19 07:51 | 44.08516 | 125.82605 | 2918 ft | 145 kts | 229° |
| 2026-04-19 07:51 | 44.07888 | 125.81591 | 2870 ft | 133 kts | 228° |
| 2026-04-19 07:52 | 44.07297 | 125.80644 | 2733 ft | 127 kts | 228° |
| 2026-04-19 07:52 | 44.06736 | 125.79749 | 2545 ft | 117 kts | 228° |
| 2026-04-19 07:52 | 44.06224 | 125.78934 | 2373 ft | 107 kts | 227° |
| 2026-04-19 07:52 | 44.05745 | 125.78173 | 2236 ft | 102 kts | 228° |
| 2026-04-19 07:53 | 44.05276 | 125.77427 | 2101 ft | 104 kts | 229° |
| 2026-04-19 07:53 | 44.04796 | 125.76664 | 1963 ft | 105 kts | 230° |
| 2026-04-19 07:53 | 44.04314 | 125.75899 | 1823 ft | 105 kts | 230° |
| 2026-04-19 07:53 | 44.03826 | 125.75125 | 1722 ft | 110 kts | 229° |
| 2026-04-19 07:54 | 44.03319 | 125.74313 | 1530 ft | 113 kts | 230° |
| 2026-04-19 07:54 | 44.02796 | 125.73477 | 1360 ft | 116 kts | 229° |
| 2026-04-19 07:54 | 44.02249 | 125.72628 | 1247 ft | 121 kts | 227° |
| 2026-04-19 07:54 | 44.01740 | 125.71666 | 1223 ft | 125 kts | 227° |
| 2026-04-19 07:55 | 44.01125 | 125.70772 | 991 ft | 129 kts | 221° |
| 2026-04-19 07:55 | 44.00468 | 125.69964 | 953 ft | 126 kts | 219° |
| 2026-04-19 07:55 | 43.99738 | 125.69274 | 1003 ft | 122 kts | 224° |
| 2026-04-19 07:55 | 43.99230 | 125.68414 | 1407 ft | 112 kts | 236° |
| 2026-04-19 07:56 | 43.98688 | 125.67677 | 2005 ft | 116 kts | 214° |
| 2026-04-19 07:56 | 43.97774 | 125.67705 | 2360 ft | 159 kts | 171° |
| 2026-04-19 07:56 | 43.96802 | 125.68812 | 2675 ft | 203 kts | 139° |
| 2026-04-19 07:56 | 43.96013 | 125.70570 | 2981 ft | 224 kts | 122° |
| 2026-04-19 07:57 | 43.95310 | 125.72537 | 3021 ft | 230 kts | 122° |
| 2026-04-19 07:57 | 43.94594 | 125.74543 | 2952 ft | 234 kts | 121° |
| 2026-04-19 07:57 | 43.93872 | 125.76575 | 2927 ft | 234 kts | 120° |
| 2026-04-19 07:57 | 43.93449 | 125.78759 | 2907 ft | 239 kts | 96° |
| 2026-04-19 07:58 | 43.93809 | 125.81018 | 2919 ft | 243 kts | 67° |
| 2026-04-19 07:58 | 43.94760 | 125.82924 | 2956 ft | 244 kts | 50° |
| 2026-04-19 07:59 | 43.95965 | 125.84570 | 2961 ft | 245 kts | 41° |
| 2026-04-19 07:59 | 43.97351 | 125.85926 | 2947 ft | 244 kts | 26° |
| 2026-04-19 07:59 | 43.98981 | 125.86704 | 2984 ft | 259 kts | 9° |
| 2026-04-19 07:59 | 44.00775 | 125.87064 | 3007 ft | 251 kts | 6° |
| 2026-04-19 08:00 | 44.02450 | 125.87389 | 2984 ft | 234 kts | 4° |
| 2026-04-19 08:00 | 44.03974 | 125.87675 | 2954 ft | 214 kts | 4° |
| 2026-04-19 08:00 | 44.05389 | 125.87944 | 2916 ft | 196 kts | 4° |
| 2026-04-19 08:00 | 44.06686 | 125.88191 | 2858 ft | 181 kts | 4° |
| 2026-04-19 08:01 | 44.07892 | 125.88422 | 2846 ft | 169 kts | 3° |
| 2026-04-19 08:01 | 44.09017 | 125.88637 | 2985 ft | 160 kts | 2° |
| 2026-04-19 08:01 | 44.10122 | 125.88842 | 3082 ft | 161 kts | 0° |
| 2026-04-19 08:01 | 44.11181 | 125.88609 | 3074 ft | 149 kts | 321° |
| 2026-04-19 08:02 | 44.11585 | 125.87488 | 2998 ft | 127 kts | 259° |
| 2026-04-19 08:02 | 44.11142 | 125.86492 | 3082 ft | 122 kts | 229° |
| 2026-04-19 08:02 | 44.10546 | 125.85648 | 3118 ft | 122 kts | 225° |
| 2026-04-19 08:02 | 44.09937 | 125.84820 | 3079 ft | 123 kts | 225° |
| 2026-04-19 08:03 | 44.09350 | 125.83963 | 3047 ft | 123 kts | 226° |
| 2026-04-19 08:03 | 44.08776 | 125.83089 | 3021 ft | 123 kts | 227° |
| 2026-04-19 08:03 | 44.08206 | 125.82200 | 2954 ft | 123 kts | 228° |
| 2026-04-19 08:03 | 44.07638 | 125.81302 | 2807 ft | 124 kts | 228° |
| 2026-04-19 08:04 | 44.07072 | 125.80403 | 2641 ft | 122 kts | 228° |
| 2026-04-19 08:04 | 44.06537 | 125.79548 | 2483 ft | 114 kts | 228° |
| 2026-04-19 08:04 | 44.06036 | 125.78749 | 2335 ft | 106 kts | 228° |
| 2026-04-19 08:04 | 44.05566 | 125.77998 | 2200 ft | 101 kts | 229° |
| 2026-04-19 08:05 | 44.05100 | 125.77252 | 2066 ft | 103 kts | 230° |
| 2026-04-19 08:05 | 44.04627 | 125.76496 | 1929 ft | 104 kts | 230° |
| 2026-04-19 08:05 | 44.04152 | 125.75735 | 1790 ft | 105 kts | 230° |
| 2026-04-19 08:05 | 44.03664 | 125.74956 | 1699 ft | 111 kts | 229° |
| 2026-04-19 08:06 | 44.03145 | 125.74122 | 1482 ft | 117 kts | 229° |
| 2026-04-19 08:06 | 44.02606 | 125.73263 | 1336 ft | 119 kts | 230° |
| 2026-04-19 08:06 | 44.02058 | 125.72387 | 1178 ft | 122 kts | 230° |
| 2026-04-19 08:06 | 44.01494 | 125.71484 | 995 ft | 128 kts | 230° |
| 2026-04-19 08:07 | 44.00886 | 125.70560 | 845 ft | 129 kts | 230° |
| 2026-04-19 08:07 | 44.00321 | 125.69685 | 729 ft | 109 kts | 230° |
| 2026-04-19 08:07 | 43.99914 | 125.69055 | 715 ft | 55 kts | 221° |
| 2026-04-19 08:07 | 43.99763 | 125.68879 | 715 ft | 14 kts | 202° |
| 2026-04-19 08:08 | 43.99690 | 125.68882 | 715 ft | 12 kts | 158° |
| 2026-04-19 08:08 | 43.99579 | 125.68914 | 715 ft | 17 kts | 177° |
| 2026-04-19 08:08 | 43.99492 | 125.68929 | 715 ft | 9 kts | 154° |
| 2026-04-19 08:08 | 43.99431 | 125.68979 | 715 ft | 8 kts | 137° |
| 2026-04-19 08:09 | 43.99426 | 125.68985 | 715 ft | 0 kts | 137° |